logo
Rechercher aéroport 
image banner adimage banner adimage banner ad
image banner ad

SJ74 - Agt Agropecuária

Situé à Araguaçu, Brazil

ICAO - SJ74, IATA -

Données fournies par Airmate  

Information générale

Coordonnées: S12°48'47" W49°34'10"
Élévation : 1000 feet MSL.
Variation magnétique : -21.433333333° East
Voir autres Aéroports à Tocatins

Données opérationnelles

Special qualification required
Heure actuelle UTC:
Heure actuelle locale:
Météo à : - ( 0 km )
METAR: CYBW 220744Z AUTO 08005KT 8SM -RA BKN018 OVC037 06/05 A2976 RMK SLP103
Voir NOTAMs / SUP AIP / TFR affectant cet aéroport [VIEW]
Fréquences de communication: [VIEW]

Pistes:

Identifiant RWYQFULongueur (ft)Largeur (ft)SurfaceLDA (ft)
14246159GRAVEL
32246159GRAVEL

Coordonnées de l'aéroport

Adresse: Araguaçu Brazil

Vue satellite de SJ74